createdAt,value
2023-01-11T00:00:45.600Z,88.77
2023-01-11T00:03:12.443Z,88.57
2023-01-11T00:05:41.169Z,89.13
2023-01-11T00:08:08.594Z,89.20
2023-01-11T00:10:35.775Z,89.82
2023-01-11T00:13:02.614Z,89.89
2023-01-11T00:15:29.650Z,90.24
2023-01-11T00:17:57.550Z,90.58
2023-01-11T00:20:24.558Z,90.74
2023-01-11T00:22:51.493Z,90.49
2023-01-11T00:25:18.306Z,90.91
2023-01-11T00:27:47.129Z,91.71
2023-01-11T00:30:13.988Z,92.27
2023-01-11T00:32:40.691Z,92.73
2023-01-11T00:35:08.204Z,93.11
2023-01-11T00:37:34.978Z,92.58
2023-01-11T00:40:01.825Z,92.84
2023-01-11T00:42:47.536Z,92.96
2023-01-11T00:45:32.947Z,92.96
2023-01-11T00:48:01.069Z,93.59
2023-01-11T00:50:31.921Z,93.73
2023-01-11T00:52:59.156Z,93.38
2023-01-11T00:55:26.550Z,93.42
2023-01-11T00:57:53.800Z,93.44
2023-01-11T01:00:21.513Z,92.87
2023-01-11T01:02:48.897Z,92.57
2023-01-11T01:05:16.316Z,92.06
2023-01-11T01:07:43.241Z,91.76
2023-01-11T01:10:11.039Z,91.12
2023-01-11T01:12:56.265Z,91.06
2023-01-11T01:15:23.464Z,90.59
2023-01-11T01:17:53.918Z,90.52
2023-01-11T01:20:21.363Z,90.29
2023-01-11T01:22:48.508Z,89.98
2023-01-11T01:25:16.019Z,90.62
2023-01-11T01:27:42.757Z,90.60
2023-01-11T01:30:10.276Z,90.37
2023-01-11T01:32:36.974Z,90.53
2023-01-11T01:35:03.757Z,89.95
2023-01-11T01:37:30.482Z,90.39
2023-01-11T01:39:57.188Z,90.71
2023-01-11T01:42:24.440Z,90.48
2023-01-11T01:44:58.650Z,91.00
2023-01-11T01:47:49.979Z,90.98
2023-01-11T01:50:23.580Z,90.96
2023-01-11T01:52:57.010Z,90.16
2023-01-11T01:55:28.066Z,90.46
2023-01-11T01:57:55.653Z,89.92
2023-01-11T02:00:22.388Z,89.91
2023-01-11T02:02:49.460Z,90.24
2023-01-11T02:05:17.415Z,90.79
2023-01-11T02:07:44.803Z,90.44
2023-01-11T02:10:21.919Z,90.69
2023-01-11T02:12:58.212Z,91.36
2023-01-11T02:15:24.919Z,91.12
2023-01-11T02:17:57.127Z,91.17
2023-01-11T02:20:35.132Z,92.35
2023-01-11T02:23:10.092Z,91.65
2023-01-11T02:25:46.064Z,92.73
2023-01-11T02:28:22.007Z,92.49
2023-01-11T02:31:11.579Z,93.11
2023-01-11T02:33:51.142Z,91.84
2023-01-11T02:36:44.370Z,92.06
2023-01-11T02:39:19.967Z,91.89
2023-01-11T02:42:12.717Z,92.28
2023-01-11T02:45:03.146Z,92.62
2023-01-11T02:47:39.873Z,93.12
2023-01-11T02:50:18.794Z,93.39
2023-01-11T02:52:51.426Z,92.96
2023-01-11T02:55:24.591Z,92.87
2023-01-11T02:57:54.682Z,92.42
2023-01-11T03:00:22.196Z,92.52
2023-01-11T03:03:27.795Z,93.33
2023-01-11T03:06:21.503Z,93.40
2023-01-11T03:08:50.950Z,94.81
2023-01-11T03:11:40.538Z,93.58
2023-01-11T03:14:27.925Z,93.33
2023-01-11T03:17:14.339Z,92.63
2023-01-11T03:19:47.956Z,93.14
2023-01-11T03:22:20.675Z,93.39
2023-01-11T03:24:55.605Z,93.94
2023-01-11T03:27:27.975Z,93.24
2023-01-11T03:30:07.825Z,93.30
2023-01-11T03:32:46.539Z,93.59
2023-01-11T03:35:39.735Z,93.38
2023-01-11T03:38:15.399Z,92.77
2023-01-11T03:40:48.234Z,93.02
2023-01-11T03:43:16.572Z,93.45
2023-01-11T03:46:03.693Z,93.91
2023-01-11T03:48:49.230Z,93.62
2023-01-11T03:51:20.952Z,93.27
2023-01-11T03:53:49.382Z,93.04
2023-01-11T03:56:18.684Z,93.45
2023-01-11T03:58:45.511Z,93.43
2023-01-11T04:01:12.580Z,94.03
2023-01-11T04:03:39.311Z,94.04
2023-01-11T04:06:06.206Z,93.69
2023-01-11T04:08:32.922Z,93.93
2023-01-11T04:10:59.758Z,93.69
2023-01-11T04:13:26.458Z,93.18
2023-01-11T04:15:55.084Z,93.16
2023-01-11T04:18:24.714Z,93.17
2023-01-11T04:20:51.395Z,93.18
2023-01-11T04:23:18.214Z,93.00
2023-01-11T04:25:45.050Z,93.14
2023-01-11T04:28:11.730Z,93.05
2023-01-11T04:30:38.477Z,93.26
2023-01-11T04:33:05.179Z,95.64
2023-01-11T04:35:31.883Z,93.97
2023-01-11T04:37:58.708Z,93.96
2023-01-11T04:40:25.724Z,93.81
2023-01-11T04:42:52.480Z,94.00
2023-01-11T04:45:19.297Z,94.07
2023-01-11T04:47:45.998Z,94.12
2023-01-11T04:50:12.976Z,94.34
2023-01-11T04:52:41.491Z,94.50
2023-01-11T04:55:09.100Z,94.62
2023-01-11T04:57:35.837Z,94.70
2023-01-11T05:00:04.964Z,94.60
2023-01-11T05:02:31.708Z,93.95
2023-01-11T05:04:58.364Z,94.13
2023-01-11T05:07:25.076Z,94.63
2023-01-11T05:09:51.762Z,94.11
2023-01-11T05:12:18.585Z,94.26
2023-01-11T05:14:48.052Z,94.41
2023-01-11T05:17:15.420Z,94.31
2023-01-11T05:19:42.387Z,94.15
2023-01-11T05:22:09.579Z,94.42
2023-01-11T05:24:36.291Z,94.20
2023-01-11T05:27:03.605Z,94.08
2023-01-11T05:29:30.372Z,94.34
2023-01-11T05:31:57.149Z,94.65
2023-01-11T05:34:23.886Z,94.25
2023-01-11T05:36:50.548Z,94.37
2023-01-11T05:39:17.209Z,94.58
2023-01-11T05:41:43.983Z,94.39
2023-01-11T05:44:32.323Z,94.96
2023-01-11T05:46:59.560Z,94.87
2023-01-11T05:49:26.305Z,94.83
2023-01-11T05:51:53.006Z,94.61
2023-01-11T05:54:19.676Z,94.60
2023-01-11T05:56:46.394Z,94.41
2023-01-11T05:59:13.070Z,94.28
2023-01-11T06:01:39.853Z,94.58
2023-01-11T06:04:08.305Z,94.67
2023-01-11T06:06:35.024Z,94.55
2023-01-11T06:09:01.701Z,94.92
2023-01-11T06:11:28.551Z,94.92
2023-01-11T06:13:55.260Z,94.86
2023-01-11T06:16:22.405Z,95.79
2023-01-11T06:18:51.002Z,96.04
2023-01-11T06:21:18.620Z,95.90
2023-01-11T06:23:47.437Z,96.09
2023-01-11T06:26:16.699Z,95.51
2023-01-11T06:28:43.969Z,95.61
2023-01-11T06:31:11.033Z,96.08
2023-01-11T06:33:37.837Z,95.86
2023-01-11T06:36:06.797Z,95.60
2023-01-11T06:38:33.578Z,95.44
2023-01-11T06:41:02.257Z,95.15
2023-01-11T06:43:30.066Z,95.23
2023-01-11T06:45:57.093Z,95.70
2023-01-11T06:48:24.205Z,95.97
2023-01-11T06:50:55.974Z,95.91
2023-01-11T06:53:23.656Z,96.44
2023-01-11T06:55:54.936Z,96.97
2023-01-11T06:58:23.491Z,96.70
2023-01-11T07:00:51.877Z,96.47
2023-01-11T07:03:20.448Z,96.32
2023-01-11T07:05:47.484Z,96.70
2023-01-11T07:08:14.233Z,96.68
2023-01-11T07:10:41.636Z,97.01
2023-01-11T07:13:08.286Z,96.73
2023-01-11T07:15:35.109Z,96.67
2023-01-11T07:18:01.939Z,96.55
2023-01-11T07:20:29.000Z,96.67
2023-01-11T07:22:59.798Z,96.56
2023-01-11T07:25:29.930Z,96.73
2023-01-11T07:27:58.265Z,96.88
2023-01-11T07:30:25.670Z,96.41
2023-01-11T07:32:52.342Z,96.45
2023-01-11T07:35:19.056Z,96.23
2023-01-11T07:37:45.907Z,96.50
2023-01-11T07:40:13.223Z,96.33
2023-01-11T07:42:58.471Z,96.60
2023-01-11T07:45:31.484Z,96.89
2023-01-11T07:48:05.739Z,96.68
2023-01-11T07:50:32.474Z,96.43
2023-01-11T07:52:59.363Z,96.45
2023-01-11T07:55:26.046Z,96.52
2023-01-11T07:57:52.776Z,96.38
2023-01-11T08:00:19.822Z,96.24
2023-01-11T08:02:50.419Z,96.47
2023-01-11T08:05:17.184Z,96.28
2023-01-11T08:07:44.025Z,96.31
2023-01-11T08:10:11.176Z,96.37
2023-01-11T08:13:07.056Z,97.22
2023-01-11T08:15:35.782Z,96.91
2023-01-11T08:18:06.558Z,96.90
2023-01-11T08:20:33.225Z,97.14
2023-01-11T08:23:03.628Z,97.09
2023-01-11T08:25:30.459Z,96.96
2023-01-11T08:27:59.703Z,97.19
2023-01-11T08:30:26.512Z,97.26
2023-01-11T08:32:53.220Z,97.42
2023-01-11T08:35:21.792Z,97.53
2023-01-11T08:37:48.434Z,98.07
2023-01-11T08:40:15.052Z,98.36
2023-01-11T08:42:41.693Z,98.62
2023-01-11T08:45:08.622Z,98.38
2023-01-11T08:47:35.450Z,98.62
2023-01-11T08:50:02.129Z,98.61
2023-01-11T08:52:28.943Z,98.50
2023-01-11T08:54:55.585Z,98.83
2023-01-11T08:57:22.295Z,98.64
2023-01-11T08:59:49.175Z,98.62
2023-01-11T09:02:15.878Z,98.81
2023-01-11T09:04:42.509Z,98.83
2023-01-11T09:07:09.243Z,98.91
2023-01-11T09:09:36.069Z,99.01
2023-01-11T09:12:05.870Z,99.11
2023-01-11T09:14:32.699Z,99.11
2023-01-11T09:16:59.460Z,99.21
2023-01-11T09:19:26.169Z,99.56
2023-01-11T09:21:53.395Z,99.72
2023-01-11T09:24:20.176Z,99.57
2023-01-11T09:26:46.977Z,99.83
2023-01-11T09:29:14.009Z,99.77
2023-01-11T09:31:40.999Z,100.00
2023-01-11T09:34:10.873Z,100.00
2023-01-11T09:36:39.837Z,100.00
2023-01-11T09:39:12.778Z,100.00
2023-01-11T09:42:26.968Z,100.00
2023-01-11T09:44:57.213Z,100.00
2023-01-11T09:47:36.808Z,100.00
2023-01-11T09:50:13.649Z,100.00
2023-01-11T09:52:43.790Z,100.00
2023-01-11T09:55:15.419Z,100.00
2023-01-11T09:57:54.144Z,100.00
2023-01-11T10:00:28.797Z,100.00
2023-01-11T10:03:14.206Z,100.00
2023-01-11T10:05:56.463Z,100.00
2023-01-11T10:18:40.973Z,100.00
2023-01-11T10:18:53.510Z,100.00
2023-01-11T10:21:29.146Z,100.00
2023-01-11T10:24:02.649Z,100.00
2023-01-11T10:26:36.163Z,100.00
2023-01-11T10:29:20.787Z,100.00
2023-01-11T10:32:02.426Z,100.00
2023-01-11T10:34:56.706Z,100.00
2023-01-11T10:37:59.813Z,100.00
2023-01-11T10:40:38.993Z,100.00
2023-01-11T10:43:21.686Z,100.00
2023-01-11T10:45:51.821Z,100.00
2023-01-11T10:48:28.708Z,100.00
2023-01-11T10:51:32.212Z,100.00
2023-01-11T10:54:18.048Z,100.00
2023-01-11T10:57:13.972Z,100.00
2023-01-11T11:00:09.199Z,100.00
2023-01-11T11:03:09.969Z,100.00
2023-01-11T11:05:53.032Z,100.00
2023-01-11T11:08:33.126Z,100.00
2023-01-11T11:11:03.538Z,100.00
2023-01-11T11:13:55.019Z,100.00
2023-01-11T11:16:24.476Z,100.00
2023-01-11T11:18:52.572Z,100.00
2023-01-11T11:21:28.516Z,100.00
2023-01-11T11:23:59.310Z,100.00
2023-01-11T11:26:30.412Z,100.00
2023-01-11T11:29:02.737Z,100.00
2023-01-11T11:31:30.642Z,100.00
2023-01-11T11:33:57.884Z,100.00
2023-01-11T11:36:24.807Z,100.00
2023-01-11T11:39:08.744Z,100.00
2023-01-11T11:41:52.820Z,100.00
2023-01-11T11:44:25.550Z,100.00
2023-01-11T11:46:58.353Z,100.00
2023-01-11T11:49:25.585Z,100.00
2023-01-11T11:51:52.641Z,100.00
2023-01-11T11:54:27.173Z,100.00
2023-01-11T11:56:54.882Z,100.00
2023-01-11T11:59:23.018Z,100.00
2023-01-11T12:02:01.310Z,100.00
2023-01-11T12:04:34.865Z,100.00
2023-01-11T12:07:08.100Z,100.00
2023-01-11T12:09:35.008Z,100.00
2023-01-11T12:12:01.947Z,100.00
2023-01-11T12:14:35.047Z,100.00
2023-01-11T12:17:22.728Z,100.00
2023-01-11T12:19:49.407Z,100.00
2023-01-11T12:22:21.330Z,100.00
2023-01-11T12:25:07.803Z,100.00
2023-01-11T12:27:46.267Z,100.00
2023-01-11T12:30:37.725Z,100.00
2023-01-11T12:33:28.872Z,100.00
2023-01-11T12:36:13.648Z,100.00
2023-01-11T12:38:57.169Z,100.00
2023-01-11T12:41:47.421Z,100.00
2023-01-11T12:44:26.736Z,100.00
2023-01-11T12:47:04.019Z,100.00
2023-01-11T12:49:33.624Z,100.00
2023-01-11T12:52:20.083Z,100.00
2023-01-11T12:55:05.133Z,100.00
2023-01-11T12:57:41.649Z,100.00
2023-01-11T13:00:12.095Z,100.00
2023-01-11T13:02:57.509Z,100.00
2023-01-11T13:05:47.680Z,100.00
2023-01-11T13:08:36.053Z,100.00
2023-01-11T13:11:35.179Z,100.00
2023-01-11T13:14:14.344Z,100.00
2023-01-11T13:17:07.126Z,100.00
2023-01-11T13:19:45.636Z,100.00
2023-01-11T13:22:16.560Z,100.00
2023-01-11T13:24:46.832Z,100.00
2023-01-11T13:27:17.729Z,100.00
2023-01-11T13:29:46.920Z,100.00
2023-01-11T13:32:16.380Z,100.00
2023-01-11T13:34:47.711Z,100.00
2023-01-11T13:37:19.854Z,100.00
2023-01-11T13:40:12.735Z,100.00
2023-01-11T13:42:46.824Z,100.00
2023-01-11T13:45:19.724Z,100.00
2023-01-11T13:47:56.983Z,100.00
2023-01-11T13:50:25.221Z,100.00
2023-01-11T13:52:54.621Z,100.00
2023-01-11T13:55:28.194Z,100.00
2023-01-11T13:58:11.222Z,100.00
2023-01-11T14:00:45.535Z,100.00
2023-01-11T14:03:41.317Z,100.00
2023-01-11T14:06:42.403Z,100.00
2023-01-11T14:09:18.002Z,100.00
2023-01-11T14:11:54.954Z,100.00
2023-01-11T14:14:55.550Z,100.00
2023-01-11T14:17:52.635Z,100.00
2023-01-11T14:20:42.105Z,100.00
2023-01-11T14:23:15.199Z,100.00
2023-01-11T14:25:47.838Z,100.00
2023-01-11T14:28:36.507Z,100.00
2023-01-11T14:31:12.519Z,100.00
2023-01-11T14:34:13.451Z,100.00
2023-01-11T14:37:07.723Z,100.00
2023-01-11T14:39:47.112Z,100.00
2023-01-11T14:42:32.160Z,100.00
2023-01-11T14:45:04.000Z,100.00
2023-01-11T14:47:45.487Z,100.00
2023-01-11T14:50:27.011Z,100.00
2023-01-11T14:52:57.563Z,100.00
2023-01-11T14:55:37.250Z,100.00
2023-01-11T14:58:05.241Z,100.00
2023-01-11T15:00:31.826Z,100.00
2023-01-11T15:03:01.372Z,100.00
2023-01-11T15:05:31.293Z,100.00
2023-01-11T15:08:21.745Z,100.00
2023-01-11T15:11:06.106Z,100.00
2023-01-11T15:13:46.472Z,100.00
2023-01-11T15:16:45.806Z,100.00
2023-01-11T15:19:49.030Z,100.00
2023-01-11T15:22:31.611Z,100.00
2023-01-11T15:25:01.391Z,100.00
2023-01-11T15:27:33.621Z,100.00
2023-01-11T15:30:00.926Z,100.00
2023-01-11T15:32:28.885Z,100.00
2023-01-11T15:35:16.049Z,100.00
2023-01-11T15:37:50.555Z,100.00
2023-01-11T15:40:26.268Z,100.00
2023-01-11T15:43:08.388Z,100.00
2023-01-11T15:46:03.690Z,100.00
2023-01-11T15:48:51.235Z,100.00
2023-01-11T15:51:26.758Z,100.00
2023-01-11T15:54:10.649Z,100.00
2023-01-11T15:57:23.062Z,100.00
2023-01-11T16:00:21.673Z,100.00
2023-01-11T16:02:57.094Z,100.00
2023-01-11T16:05:27.875Z,100.00
2023-01-11T16:08:06.295Z,100.00
2023-01-11T16:10:48.791Z,100.00
2023-01-11T16:13:44.629Z,100.00
2023-01-11T16:16:17.805Z,100.00
2023-01-11T16:18:45.502Z,100.00
2023-01-11T16:21:21.398Z,100.00
2023-01-11T16:23:48.839Z,100.00
2023-01-11T16:26:17.485Z,100.00
2023-01-11T16:28:49.597Z,100.00
2023-01-11T16:31:16.334Z,100.00
2023-01-11T16:33:43.148Z,100.00
2023-01-11T16:36:23.923Z,100.00
2023-01-11T16:39:05.996Z,100.00
2023-01-11T16:41:41.186Z,100.00
2023-01-11T16:44:09.047Z,100.00
2023-01-11T16:47:02.389Z,100.00
2023-01-11T16:49:29.141Z,100.00
2023-01-11T16:51:57.607Z,100.00
2023-01-11T16:54:27.310Z,100.00
2023-01-11T16:56:54.582Z,100.00
2023-01-11T16:59:24.550Z,100.00
2023-01-11T17:01:58.630Z,100.00
2023-01-11T17:04:33.318Z,100.00
2023-01-11T17:07:18.529Z,100.00
2023-01-11T17:09:45.370Z,100.00
2023-01-11T17:12:38.385Z,100.00
2023-01-11T17:15:23.196Z,100.00
2023-01-11T17:17:50.486Z,100.00
2023-01-11T17:20:20.390Z,100.00
2023-01-11T17:22:49.585Z,100.00
2023-01-11T17:25:41.038Z,100.00
2023-01-11T17:28:19.114Z,100.00
2023-01-11T17:30:47.610Z,100.00
2023-01-11T17:33:32.737Z,100.00
2023-01-11T17:36:00.057Z,100.00
2023-01-11T17:38:27.951Z,100.00
2023-01-11T17:40:58.505Z,100.00
2023-01-11T17:43:45.594Z,100.00
2023-01-11T17:46:20.845Z,100.00
2023-01-11T17:48:58.613Z,100.00
2023-01-11T17:51:33.901Z,100.00
2023-01-11T17:54:00.648Z,100.00
2023-01-11T17:56:38.436Z,100.00
2023-01-11T17:59:11.101Z,100.00
2023-01-11T18:01:37.844Z,100.00
2023-01-11T18:04:04.695Z,100.00
2023-01-11T18:06:37.047Z,100.00
2023-01-11T18:09:06.031Z,100.00
2023-01-11T18:11:35.017Z,100.00
2023-01-11T18:14:07.706Z,100.00
2023-01-11T18:16:34.521Z,100.00
2023-01-11T18:19:01.318Z,100.00
2023-01-11T18:21:41.088Z,100.00
2023-01-11T18:24:14.379Z,100.00
2023-01-11T18:26:42.487Z,100.00
2023-01-11T18:29:20.009Z,100.00
2023-01-11T18:31:46.735Z,100.00
2023-01-11T18:34:13.403Z,100.00
2023-01-11T18:36:40.183Z,100.00
2023-01-11T18:39:12.761Z,100.00
2023-01-11T18:41:58.365Z,100.00
2023-01-11T18:44:25.178Z,100.00
2023-01-11T18:46:51.867Z,100.00
2023-01-11T18:49:18.574Z,100.00
2023-01-11T18:51:45.329Z,100.00
2023-01-11T18:54:16.425Z,100.00
2023-01-11T18:56:43.199Z,100.00
2023-01-11T18:59:09.977Z,100.00
2023-01-11T19:01:52.596Z,100.00
2023-01-11T19:04:24.295Z,100.00
2023-01-11T19:06:52.267Z,99.62
2023-01-11T19:09:19.037Z,99.98
2023-01-11T19:11:45.791Z,99.61
2023-01-11T19:14:12.589Z,99.56
2023-01-11T19:16:39.339Z,99.44
2023-01-11T19:19:06.248Z,99.44
2023-01-11T19:21:32.939Z,99.08
2023-01-11T19:23:59.658Z,99.04
2023-01-11T19:26:27.684Z,99.16
2023-01-11T19:28:54.443Z,98.94
2023-01-11T19:31:21.244Z,98.60
2023-01-11T19:33:48.253Z,99.09
2023-01-11T19:36:14.924Z,98.65
2023-01-11T19:38:41.666Z,98.41
2023-01-11T19:41:09.449Z,98.41
2023-01-11T19:43:36.618Z,98.59
2023-01-11T19:46:03.973Z,98.53
2023-01-11T19:48:34.564Z,98.28
2023-01-11T19:51:07.678Z,97.72
2023-01-11T19:53:34.939Z,98.32
2023-01-11T19:56:06.657Z,97.86
2023-01-11T19:58:35.557Z,97.64
2023-01-11T20:01:09.670Z,97.17
2023-01-11T20:03:36.959Z,97.74
2023-01-11T20:06:09.039Z,97.69
2023-01-11T20:08:40.994Z,97.88
2023-01-11T20:11:09.774Z,97.74
2023-01-11T20:13:36.615Z,97.69
2023-01-11T20:16:11.988Z,96.90
2023-01-11T20:18:39.363Z,97.79
2023-01-11T20:21:10.362Z,97.84
2023-01-11T20:23:37.255Z,98.12
2023-01-11T20:26:05.933Z,98.37
2023-01-11T20:28:33.666Z,98.68
2023-01-11T20:31:02.272Z,98.43
2023-01-11T20:33:29.237Z,98.46
2023-01-11T20:35:55.908Z,98.28
2023-01-11T20:38:22.664Z,97.82
2023-01-11T20:40:49.489Z,97.98
2023-01-11T20:43:17.395Z,97.75
2023-01-11T20:45:44.280Z,97.52
2023-01-11T20:48:11.153Z,97.42
2023-01-11T20:50:37.868Z,97.24
2023-01-11T20:53:04.545Z,97.01
2023-01-11T20:55:31.321Z,97.09
2023-01-11T20:57:58.436Z,96.70
2023-01-11T21:00:25.370Z,96.57
2023-01-11T21:02:52.180Z,96.78
2023-01-11T21:05:18.975Z,96.57
2023-01-11T21:07:46.840Z,96.36
2023-01-11T21:10:13.627Z,96.22
2023-01-11T21:12:40.419Z,95.89
2023-01-11T21:15:10.471Z,95.89
2023-01-11T21:17:37.727Z,95.75
2023-01-11T21:20:05.280Z,95.69
2023-01-11T21:22:32.082Z,95.51
2023-01-11T21:24:58.823Z,95.58
2023-01-11T21:27:25.785Z,95.44
2023-01-11T21:29:52.426Z,95.17
2023-01-11T21:32:19.091Z,95.19
2023-01-11T21:34:45.781Z,95.02
2023-01-11T21:37:12.499Z,94.87
2023-01-11T21:39:39.224Z,94.91
2023-01-11T21:42:06.073Z,94.81
2023-01-11T21:44:33.917Z,94.79
2023-01-11T21:47:02.099Z,94.83
2023-01-11T21:49:29.022Z,94.80
2023-01-11T21:51:55.805Z,94.50
2023-01-11T21:54:22.647Z,94.50
2023-01-11T21:56:49.932Z,94.36
2023-01-11T21:59:16.910Z,94.19
2023-01-11T22:01:46.119Z,93.67
2023-01-11T22:04:14.570Z,94.05
2023-01-11T22:06:43.347Z,93.78
2023-01-11T22:09:11.360Z,93.84
2023-01-11T22:11:38.667Z,93.41
2023-01-11T22:14:06.575Z,93.42
2023-01-11T22:16:33.782Z,93.57
2023-01-11T22:19:01.491Z,93.21
2023-01-11T22:21:28.550Z,93.34
2023-01-11T22:23:56.971Z,93.20
2023-01-11T22:26:24.059Z,93.63
2023-01-11T22:29:14.144Z,93.29
2023-01-11T22:31:50.766Z,93.38
2023-01-11T22:34:18.116Z,94.37
2023-01-11T22:36:45.543Z,94.42
2023-01-11T22:39:13.535Z,94.43
2023-01-11T22:41:40.518Z,94.60
2023-01-11T22:44:07.978Z,94.36
2023-01-11T22:46:34.746Z,94.33
2023-01-11T22:49:01.612Z,94.07
2023-01-11T22:51:28.495Z,94.15
2023-01-11T22:53:55.694Z,93.98
2023-01-11T22:56:25.627Z,94.10
2023-01-11T22:58:56.673Z,93.65
2023-01-11T23:01:28.709Z,93.71
2023-01-11T23:03:56.202Z,93.93
2023-01-11T23:06:25.613Z,93.46
2023-01-11T23:08:52.594Z,93.46
2023-01-11T23:11:40.347Z,93.56
2023-01-11T23:14:09.571Z,93.35
2023-01-11T23:16:36.663Z,93.20
2023-01-11T23:19:04.783Z,92.97
2023-01-11T23:21:31.754Z,93.16
2023-01-11T23:24:00.567Z,93.02
2023-01-11T23:26:27.534Z,92.91
2023-01-11T23:28:54.203Z,92.78
2023-01-11T23:31:23.078Z,92.59
2023-01-11T23:33:52.179Z,92.34
2023-01-11T23:36:20.557Z,92.34
2023-01-11T23:38:47.935Z,92.27
2023-01-11T23:41:35.506Z,92.26
2023-01-11T23:44:04.826Z,92.19
2023-01-11T23:46:50.356Z,92.40
2023-01-11T23:49:17.896Z,92.61
2023-01-11T23:51:44.664Z,92.52
2023-01-11T23:54:11.682Z,92.80
2023-01-11T23:56:38.833Z,93.08
2023-01-11T23:59:06.795Z,93.02
